sensor_id;sensor_type;location;lat;lon;timestamp;P1;durP1;ratioP1;P2;durP2;ratioP2
70342;SDS011;57767;42.068;24.752;2024-02-28T00:00:21;30.95;;;18.90;;
70342;SDS011;57767;42.068;24.752;2024-02-28T00:01:22;37.10;;;20.50;;
70342;SDS011;57767;42.068;24.752;2024-02-28T00:02:24;34.00;;;20.13;;
70342;SDS011;57767;42.068;24.752;2024-02-28T00:03:26;31.25;;;20.30;;
70342;SDS011;57767;42.068;24.752;2024-02-28T00:04:27;36.45;;;21.25;;
70342;SDS011;57767;42.068;24.752;2024-02-28T00:05:29;32.08;;;19.83;;
70342;SDS011;57767;42.068;24.752;2024-02-28T00:06:30;34.53;;;20.13;;
70342;SDS011;57767;42.068;24.752;2024-02-28T00:07:32;35.53;;;20.35;;
70342;SDS011;57767;42.068;24.752;2024-02-28T00:08:34;31.50;;;19.00;;
70342;SDS011;57767;42.068;24.752;2024-02-28T00:09:37;34.08;;;19.65;;
70342;SDS011;57767;42.068;24.752;2024-02-28T00:10:38;32.45;;;19.33;;
70342;SDS011;57767;42.068;24.752;2024-02-28T00:11:43;35.33;;;19.73;;
70342;SDS011;57767;42.068;24.752;2024-02-28T00:12:49;35.38;;;20.27;;
70342;SDS011;57767;42.068;24.752;2024-02-28T00:13:50;34.13;;;19.42;;
70342;SDS011;57767;42.068;24.752;2024-02-28T00:14:52;30.45;;;18.67;;
70342;SDS011;57767;42.068;24.752;2024-02-28T00:15:54;31.42;;;18.33;;
70342;SDS011;57767;42.068;24.752;2024-02-28T00:16:55;37.75;;;19.55;;
70342;SDS011;57767;42.068;24.752;2024-02-28T00:17:57;33.83;;;19.35;;
70342;SDS011;57767;42.068;24.752;2024-02-28T00:18:59;32.70;;;18.92;;
70342;SDS011;57767;42.068;24.752;2024-02-28T00:20:00;32.95;;;18.38;;
70342;SDS011;57767;42.068;24.752;2024-02-28T00:21:02;32.15;;;18.20;;
70342;SDS011;57767;42.068;24.752;2024-02-28T00:22:05;29.58;;;19.10;;
70342;SDS011;57767;42.068;24.752;2024-02-28T00:23:06;31.20;;;17.65;;
70342;SDS011;57767;42.068;24.752;2024-02-28T00:24:08;40.55;;;19.05;;
70342;SDS011;57767;42.068;24.752;2024-02-28T00:25:10;28.73;;;17.98;;
70342;SDS011;57767;42.068;24.752;2024-02-28T00:26:12;32.10;;;17.95;;
70342;SDS011;57767;42.068;24.752;2024-02-28T00:27:14;28.83;;;18.13;;
70342;SDS011;57767;42.068;24.752;2024-02-28T00:28:16;35.50;;;18.58;;
70342;SDS011;57767;42.068;24.752;2024-02-28T00:29:17;33.03;;;19.08;;
70342;SDS011;57767;42.068;24.752;2024-02-28T00:30:19;28.88;;;17.85;;
70342;SDS011;57767;42.068;24.752;2024-02-28T00:31:20;32.58;;;18.88;;
70342;SDS011;57767;42.068;24.752;2024-02-28T00:32:25;32.22;;;19.00;;
70342;SDS011;57767;42.068;24.752;2024-02-28T00:33:26;34.58;;;17.55;;
70342;SDS011;57767;42.068;24.752;2024-02-28T00:34:28;33.63;;;18.48;;
70342;SDS011;57767;42.068;24.752;2024-02-28T00:35:31;32.03;;;18.90;;
70342;SDS011;57767;42.068;24.752;2024-02-28T00:36:34;33.22;;;18.58;;
70342;SDS011;57767;42.068;24.752;2024-02-28T00:37:52;31.48;;;18.17;;
70342;SDS011;57767;42.068;24.752;2024-02-28T00:38:54;34.47;;;18.52;;
70342;SDS011;57767;42.068;24.752;2024-02-28T00:39:55;39.65;;;19.63;;
70342;SDS011;57767;42.068;24.752;2024-02-28T00:40:57;31.23;;;18.40;;
70342;SDS011;57767;42.068;24.752;2024-02-28T00:41:58;29.80;;;18.08;;
70342;SDS011;57767;42.068;24.752;2024-02-28T00:43:00;33.58;;;18.60;;
70342;SDS011;57767;42.068;24.752;2024-02-28T00:44:02;34.22;;;18.50;;
70342;SDS011;57767;42.068;24.752;2024-02-28T00:45:04;34.40;;;18.50;;
70342;SDS011;57767;42.068;24.752;2024-02-28T00:46:06;36.65;;;19.23;;
70342;SDS011;57767;42.068;24.752;2024-02-28T00:47:12;38.17;;;20.17;;
70342;SDS011;57767;42.068;24.752;2024-02-28T00:48:14;32.55;;;19.90;;
70342;SDS011;57767;42.068;24.752;2024-02-28T00:49:15;32.70;;;17.92;;
70342;SDS011;57767;42.068;24.752;2024-02-28T00:50:17;31.10;;;17.38;;
70342;SDS011;57767;42.068;24.752;2024-02-28T00:51:19;28.77;;;18.58;;
70342;SDS011;57767;42.068;24.752;2024-02-28T00:52:20;34.28;;;18.92;;
70342;SDS011;57767;42.068;24.752;2024-02-28T00:53:22;32.45;;;18.80;;
70342;SDS011;57767;42.068;24.752;2024-02-28T00:54:24;32.33;;;18.58;;
70342;SDS011;57767;42.068;24.752;2024-02-28T00:55:27;27.73;;;17.85;;
70342;SDS011;57767;42.068;24.752;2024-02-28T00:56:28;31.55;;;17.42;;
70342;SDS011;57767;42.068;24.752;2024-02-28T00:57:30;30.17;;;17.20;;
70342;SDS011;57767;42.068;24.752;2024-02-28T00:58:32;32.33;;;18.13;;
70342;SDS011;57767;42.068;24.752;2024-02-28T00:59:34;33.33;;;17.33;;
70342;SDS011;57767;42.068;24.752;2024-02-28T01:00:35;30.23;;;17.90;;
70342;SDS011;57767;42.068;24.752;2024-02-28T01:01:37;33.85;;;17.83;;
70342;SDS011;57767;42.068;24.752;2024-02-28T01:02:39;34.72;;;17.20;;
70342;SDS011;57767;42.068;24.752;2024-02-28T01:03:42;31.73;;;17.02;;
70342;SDS011;57767;42.068;24.752;2024-02-28T01:04:44;34.92;;;17.45;;
70342;SDS011;57767;42.068;24.752;2024-02-28T01:05:45;29.60;;;16.33;;
70342;SDS011;57767;42.068;24.752;2024-02-28T01:06:47;29.17;;;16.25;;
70342;SDS011;57767;42.068;24.752;2024-02-28T01:07:49;29.10;;;16.60;;
70342;SDS011;57767;42.068;24.752;2024-02-28T01:08:51;35.30;;;17.80;;
70342;SDS011;57767;42.068;24.752;2024-02-28T01:09:52;32.10;;;16.42;;
70342;SDS011;57767;42.068;24.752;2024-02-28T01:10:54;31.85;;;18.33;;
70342;SDS011;57767;42.068;24.752;2024-02-28T01:11:56;34.40;;;17.17;;
70342;SDS011;57767;42.068;24.752;2024-02-28T01:12:57;33.30;;;17.17;;
70342;SDS011;57767;42.068;24.752;2024-02-28T01:13:59;26.88;;;18.25;;
70342;SDS011;57767;42.068;24.752;2024-02-28T01:15:01;35.10;;;18.63;;
70342;SDS011;57767;42.068;24.752;2024-02-28T01:16:02;33.95;;;17.70;;
70342;SDS011;57767;42.068;24.752;2024-02-28T01:17:04;31.83;;;17.65;;
70342;SDS011;57767;42.068;24.752;2024-02-28T01:18:06;32.17;;;18.30;;
70342;SDS011;57767;42.068;24.752;2024-02-28T01:19:07;35.63;;;18.73;;
70342;SDS011;57767;42.068;24.752;2024-02-28T01:20:09;37.13;;;19.60;;
70342;SDS011;57767;42.068;24.752;2024-02-28T01:21:11;38.30;;;19.45;;
70342;SDS011;57767;42.068;24.752;2024-02-28T01:22:13;40.83;;;20.63;;
70342;SDS011;57767;42.068;24.752;2024-02-28T01:23:15;39.05;;;21.73;;
70342;SDS011;57767;42.068;24.752;2024-02-28T01:24:16;37.40;;;22.25;;
70342;SDS011;57767;42.068;24.752;2024-02-28T01:25:18;37.17;;;22.40;;
70342;SDS011;57767;42.068;24.752;2024-02-28T01:26:19;37.63;;;22.65;;
70342;SDS011;57767;42.068;24.752;2024-02-28T01:27:23;36.55;;;20.13;;
70342;SDS011;57767;42.068;24.752;2024-02-28T01:28:25;37.92;;;20.50;;
70342;SDS011;57767;42.068;24.752;2024-02-28T01:29:27;36.05;;;20.50;;
70342;SDS011;57767;42.068;24.752;2024-02-28T01:30:28;36.75;;;20.75;;
70342;SDS011;57767;42.068;24.752;2024-02-28T01:31:30;40.00;;;19.45;;
70342;SDS011;57767;42.068;24.752;2024-02-28T01:32:31;37.58;;;20.65;;
70342;SDS011;57767;42.068;24.752;2024-02-28T01:33:34;32.67;;;19.85;;
70342;SDS011;57767;42.068;24.752;2024-02-28T01:34:36;33.72;;;20.50;;
70342;SDS011;57767;42.068;24.752;2024-02-28T01:35:37;39.53;;;21.60;;
70342;SDS011;57767;42.068;24.752;2024-02-28T01:36:39;45.95;;;21.40;;
70342;SDS011;57767;42.068;24.752;2024-02-28T01:37:41;37.45;;;21.50;;
70342;SDS011;57767;42.068;24.752;2024-02-28T01:38:42;38.53;;;22.85;;
70342;SDS011;57767;42.068;24.752;2024-02-28T01:39:44;41.28;;;24.25;;
70342;SDS011;57767;42.068;24.752;2024-02-28T01:40:46;43.90;;;25.55;;
70342;SDS011;57767;42.068;24.752;2024-02-28T01:41:51;35.20;;;23.85;;
70342;SDS011;57767;42.068;24.752;2024-02-28T01:42:54;36.28;;;24.27;;
70342;SDS011;57767;42.068;24.752;2024-02-28T01:43:56;35.53;;;22.08;;
70342;SDS011;57767;42.068;24.752;2024-02-28T01:44:57;36.53;;;21.02;;
70342;SDS011;57767;42.068;24.752;2024-02-28T01:45:59;41.83;;;22.63;;
70342;SDS011;57767;42.068;24.752;2024-02-28T01:47:04;34.15;;;20.08;;
70342;SDS011;57767;42.068;24.752;2024-02-28T01:48:07;32.42;;;21.27;;
70342;SDS011;57767;42.068;24.752;2024-02-28T01:49:11;33.25;;;19.55;;
70342;SDS011;57767;42.068;24.752;2024-02-28T01:50:13;33.15;;;20.20;;
70342;SDS011;57767;42.068;24.752;2024-02-28T01:51:15;32.00;;;19.40;;
70342;SDS011;57767;42.068;24.752;2024-02-28T01:52:18;37.17;;;20.98;;
70342;SDS011;57767;42.068;24.752;2024-02-28T01:53:20;35.65;;;19.88;;
70342;SDS011;57767;42.068;24.752;2024-02-28T01:54:21;37.60;;;19.52;;
70342;SDS011;57767;42.068;24.752;2024-02-28T01:55:24;32.33;;;19.13;;
70342;SDS011;57767;42.068;24.752;2024-02-28T01:56:27;38.13;;;19.98;;
70342;SDS011;57767;42.068;24.752;2024-02-28T01:57:28;34.10;;;20.88;;
70342;SDS011;57767;42.068;24.752;2024-02-28T01:58:31;39.10;;;21.15;;
70342;SDS011;57767;42.068;24.752;2024-02-28T01:59:33;39.63;;;19.80;;
70342;SDS011;57767;42.068;24.752;2024-02-28T02:00:36;30.73;;;21.08;;
70342;SDS011;57767;42.068;24.752;2024-02-28T02:01:38;37.63;;;20.45;;
70342;SDS011;57767;42.068;24.752;2024-02-28T02:02:41;34.85;;;19.70;;
70342;SDS011;57767;42.068;24.752;2024-02-28T02:03:43;30.75;;;18.20;;
70342;SDS011;57767;42.068;24.752;2024-02-28T02:04:45;34.50;;;19.08;;
70342;SDS011;57767;42.068;24.752;2024-02-28T02:05:47;35.33;;;20.48;;
70342;SDS011;57767;42.068;24.752;2024-02-28T02:06:48;32.33;;;19.85;;
70342;SDS011;57767;42.068;24.752;2024-02-28T02:07:50;38.00;;;20.30;;
70342;SDS011;57767;42.068;24.752;2024-02-28T02:08:52;39.80;;;21.20;;
70342;SDS011;57767;42.068;24.752;2024-02-28T02:09:55;40.25;;;20.00;;
70342;SDS011;57767;42.068;24.752;2024-02-28T02:10:57;32.60;;;19.13;;
70342;SDS011;57767;42.068;24.752;2024-02-28T02:11:59;35.50;;;19.60;;
70342;SDS011;57767;42.068;24.752;2024-02-28T02:13:04;31.75;;;18.98;;
70342;SDS011;57767;42.068;24.752;2024-02-28T02:14:06;38.92;;;19.58;;
70342;SDS011;57767;42.068;24.752;2024-02-28T02:15:08;32.00;;;19.33;;
70342;SDS011;57767;42.068;24.752;2024-02-28T02:16:09;35.03;;;20.08;;
70342;SDS011;57767;42.068;24.752;2024-02-28T02:17:11;35.65;;;19.33;;
70342;SDS011;57767;42.068;24.752;2024-02-28T02:18:12;37.92;;;20.83;;
70342;SDS011;57767;42.068;24.752;2024-02-28T02:19:14;35.17;;;20.48;;
70342;SDS011;57767;42.068;24.752;2024-02-28T02:20:18;32.20;;;19.88;;
70342;SDS011;57767;42.068;24.752;2024-02-28T02:21:26;37.45;;;20.77;;
70342;SDS011;57767;42.068;24.752;2024-02-28T02:22:36;35.70;;;20.55;;
70342;SDS011;57767;42.068;24.752;2024-02-28T02:23:40;35.67;;;20.33;;
70342;SDS011;57767;42.068;24.752;2024-02-28T02:24:42;36.13;;;21.38;;
70342;SDS011;57767;42.068;24.752;2024-02-28T02:25:47;38.70;;;19.60;;
70342;SDS011;57767;42.068;24.752;2024-02-28T02:26:54;34.88;;;21.15;;
70342;SDS011;57767;42.068;24.752;2024-02-28T02:27:56;32.92;;;20.60;;
70342;SDS011;57767;42.068;24.752;2024-02-28T02:28:58;33.50;;;20.92;;
70342;SDS011;57767;42.068;24.752;2024-02-28T02:30:00;30.77;;;20.70;;
70342;SDS011;57767;42.068;24.752;2024-02-28T02:31:02;34.60;;;18.90;;
70342;SDS011;57767;42.068;24.752;2024-02-28T02:32:03;27.73;;;18.25;;
70342;SDS011;57767;42.068;24.752;2024-02-28T02:33:06;29.77;;;19.60;;
70342;SDS011;57767;42.068;24.752;2024-02-28T02:34:07;31.17;;;20.13;;
70342;SDS011;57767;42.068;24.752;2024-02-28T02:35:09;32.70;;;20.98;;
70342;SDS011;57767;42.068;24.752;2024-02-28T02:36:10;33.13;;;19.92;;
70342;SDS011;57767;42.068;24.752;2024-02-28T02:37:12;30.52;;;18.13;;
70342;SDS011;57767;42.068;24.752;2024-02-28T02:38:14;30.95;;;18.13;;
70342;SDS011;57767;42.068;24.752;2024-02-28T02:39:15;30.30;;;17.85;;
70342;SDS011;57767;42.068;24.752;2024-02-28T02:40:17;33.63;;;17.73;;
70342;SDS011;57767;42.068;24.752;2024-02-28T02:41:19;29.38;;;18.65;;
70342;SDS011;57767;42.068;24.752;2024-02-28T02:42:20;29.92;;;18.33;;
70342;SDS011;57767;42.068;24.752;2024-02-28T02:43:22;28.17;;;17.45;;
70342;SDS011;57767;42.068;24.752;2024-02-28T02:44:23;31.25;;;17.83;;
70342;SDS011;57767;42.068;24.752;2024-02-28T02:45:25;25.65;;;15.98;;
70342;SDS011;57767;42.068;24.752;2024-02-28T02:46:27;25.75;;;16.30;;
70342;SDS011;57767;42.068;24.752;2024-02-28T02:47:29;25.80;;;17.05;;
70342;SDS011;57767;42.068;24.752;2024-02-28T02:48:32;24.85;;;16.73;;
70342;SDS011;57767;42.068;24.752;2024-02-28T02:49:34;28.30;;;16.27;;
70342;SDS011;57767;42.068;24.752;2024-02-28T02:50:35;25.90;;;17.67;;
70342;SDS011;57767;42.068;24.752;2024-02-28T02:51:37;23.08;;;15.82;;
70342;SDS011;57767;42.068;24.752;2024-02-28T02:52:39;23.77;;;15.10;;
70342;SDS011;57767;42.068;24.752;2024-02-28T02:53:40;25.27;;;16.52;;
70342;SDS011;57767;42.068;24.752;2024-02-28T02:54:42;21.75;;;14.13;;
70342;SDS011;57767;42.068;24.752;2024-02-28T02:55:44;26.80;;;16.95;;
70342;SDS011;57767;42.068;24.752;2024-02-28T02:56:45;24.98;;;16.67;;
70342;SDS011;57767;42.068;24.752;2024-02-28T02:57:47;27.05;;;16.58;;
70342;SDS011;57767;42.068;24.752;2024-02-28T02:58:49;28.30;;;17.83;;
70342;SDS011;57767;42.068;24.752;2024-02-28T02:59:50;29.00;;;15.85;;
70342;SDS011;57767;42.068;24.752;2024-02-28T03:00:52;31.05;;;18.48;;
70342;SDS011;57767;42.068;24.752;2024-02-28T03:01:54;24.75;;;16.70;;
70342;SDS011;57767;42.068;24.752;2024-02-28T03:02:55;29.52;;;17.83;;
70342;SDS011;57767;42.068;24.752;2024-02-28T03:03:57;28.05;;;16.70;;
70342;SDS011;57767;42.068;24.752;2024-02-28T03:04:59;28.50;;;17.38;;
70342;SDS011;57767;42.068;24.752;2024-02-28T03:06:00;27.20;;;17.13;;
70342;SDS011;57767;42.068;24.752;2024-02-28T03:07:02;30.10;;;19.98;;
70342;SDS011;57767;42.068;24.752;2024-02-28T03:08:04;27.67;;;18.33;;
70342;SDS011;57767;42.068;24.752;2024-02-28T03:09:08;31.90;;;19.60;;
70342;SDS011;57767;42.068;24.752;2024-02-28T03:10:10;29.92;;;18.67;;
70342;SDS011;57767;42.068;24.752;2024-02-28T03:11:11;25.83;;;17.25;;
70342;SDS011;57767;42.068;24.752;2024-02-28T03:12:13;26.85;;;16.98;;
70342;SDS011;57767;42.068;24.752;2024-02-28T03:13:15;25.85;;;17.27;;
70342;SDS011;57767;42.068;24.752;2024-02-28T03:14:16;28.05;;;17.60;;
70342;SDS011;57767;42.068;24.752;2024-02-28T03:15:18;24.67;;;16.83;;
70342;SDS011;57767;42.068;24.752;2024-02-28T03:16:20;31.23;;;17.92;;
70342;SDS011;57767;42.068;24.752;2024-02-28T03:17:21;24.42;;;15.70;;
70342;SDS011;57767;42.068;24.752;2024-02-28T03:18:23;25.10;;;16.42;;
70342;SDS011;57767;42.068;24.752;2024-02-28T03:19:24;28.13;;;17.00;;
70342;SDS011;57767;42.068;24.752;2024-02-28T03:20:26;31.15;;;17.52;;
70342;SDS011;57767;42.068;24.752;2024-02-28T03:21:28;26.45;;;18.15;;
70342;SDS011;57767;42.068;24.752;2024-02-28T03:22:29;25.48;;;17.50;;
70342;SDS011;57767;42.068;24.752;2024-02-28T03:23:31;28.80;;;18.08;;
70342;SDS011;57767;42.068;24.752;2024-02-28T03:24:33;30.70;;;17.88;;
70342;SDS011;57767;42.068;24.752;2024-02-28T03:25:38;25.98;;;16.83;;
70342;SDS011;57767;42.068;24.752;2024-02-28T03:26:40;26.50;;;15.80;;
70342;SDS011;57767;42.068;24.752;2024-02-28T03:27:41;24.30;;;15.82;;
70342;SDS011;57767;42.068;24.752;2024-02-28T03:28:43;25.65;;;16.70;;
70342;SDS011;57767;42.068;24.752;2024-02-28T03:29:45;26.15;;;16.67;;
70342;SDS011;57767;42.068;24.752;2024-02-28T03:30:47;24.13;;;16.15;;
70342;SDS011;57767;42.068;24.752;2024-02-28T03:31:48;24.20;;;15.38;;
70342;SDS011;57767;42.068;24.752;2024-02-28T03:32:50;25.17;;;15.63;;
70342;SDS011;57767;42.068;24.752;2024-02-28T03:33:52;21.67;;;15.65;;
70342;SDS011;57767;42.068;24.752;2024-02-28T03:34:53;24.05;;;16.05;;
70342;SDS011;57767;42.068;24.752;2024-02-28T03:35:55;24.17;;;15.05;;
70342;SDS011;57767;42.068;24.752;2024-02-28T03:36:57;18.98;;;14.00;;
70342;SDS011;57767;42.068;24.752;2024-02-28T03:37:58;25.90;;;15.63;;
70342;SDS011;57767;42.068;24.752;2024-02-28T03:39:00;21.95;;;15.07;;
70342;SDS011;57767;42.068;24.752;2024-02-28T03:40:02;24.13;;;15.95;;
70342;SDS011;57767;42.068;24.752;2024-02-28T03:41:04;26.83;;;17.48;;
70342;SDS011;57767;42.068;24.752;2024-02-28T03:42:06;25.35;;;17.48;;
70342;SDS011;57767;42.068;24.752;2024-02-28T03:43:08;27.95;;;16.38;;
70342;SDS011;57767;42.068;24.752;2024-02-28T03:44:09;22.25;;;17.58;;
70342;SDS011;57767;42.068;24.752;2024-02-28T03:45:12;22.33;;;17.05;;
70342;SDS011;57767;42.068;24.752;2024-02-28T03:46:13;22.35;;;16.23;;
70342;SDS011;57767;42.068;24.752;2024-02-28T03:47:15;24.17;;;16.50;;
70342;SDS011;57767;42.068;24.752;2024-02-28T03:48:16;23.92;;;15.27;;
70342;SDS011;57767;42.068;24.752;2024-02-28T03:49:18;23.08;;;16.33;;
70342;SDS011;57767;42.068;24.752;2024-02-28T03:50:20;24.35;;;15.43;;
70342;SDS011;57767;42.068;24.752;2024-02-28T03:51:22;21.17;;;15.25;;
70342;SDS011;57767;42.068;24.752;2024-02-28T03:52:23;21.30;;;15.13;;
70342;SDS011;57767;42.068;24.752;2024-02-28T03:53:25;20.98;;;14.57;;
70342;SDS011;57767;42.068;24.752;2024-02-28T03:54:27;19.10;;;13.00;;
70342;SDS011;57767;42.068;24.752;2024-02-28T03:55:29;22.17;;;15.60;;
70342;SDS011;57767;42.068;24.752;2024-02-28T03:56:30;25.60;;;14.80;;
70342;SDS011;57767;42.068;24.752;2024-02-28T03:57:32;23.70;;;16.00;;
70342;SDS011;57767;42.068;24.752;2024-02-28T03:58:34;21.38;;;15.23;;
70342;SDS011;57767;42.068;24.752;2024-02-28T03:59:36;18.38;;;14.80;;
70342;SDS011;57767;42.068;24.752;2024-02-28T04:00:38;20.95;;;13.50;;
70342;SDS011;57767;42.068;24.752;2024-02-28T04:01:40;24.30;;;14.05;;
70342;SDS011;57767;42.068;24.752;2024-02-28T04:02:41;18.77;;;13.63;;
70342;SDS011;57767;42.068;24.752;2024-02-28T04:03:43;25.60;;;14.15;;
70342;SDS011;57767;42.068;24.752;2024-02-28T04:04:44;18.60;;;13.25;;
70342;SDS011;57767;42.068;24.752;2024-02-28T04:05:46;20.95;;;13.50;;
70342;SDS011;57767;42.068;24.752;2024-02-28T04:06:48;22.92;;;12.93;;
70342;SDS011;57767;42.068;24.752;2024-02-28T04:07:49;20.92;;;12.60;;
70342;SDS011;57767;42.068;24.752;2024-02-28T04:08:51;22.23;;;13.82;;
70342;SDS011;57767;42.068;24.752;2024-02-28T04:09:53;19.15;;;13.02;;
70342;SDS011;57767;42.068;24.752;2024-02-28T04:10:54;17.77;;;12.63;;
70342;SDS011;57767;42.068;24.752;2024-02-28T04:11:56;18.00;;;13.60;;
70342;SDS011;57767;42.068;24.752;2024-02-28T04:12:57;18.90;;;14.65;;
70342;SDS011;57767;42.068;24.752;2024-02-28T04:13:59;19.98;;;14.43;;
70342;SDS011;57767;42.068;24.752;2024-02-28T04:15:01;25.38;;;14.85;;
70342;SDS011;57767;42.068;24.752;2024-02-28T04:16:02;18.00;;;12.23;;
70342;SDS011;57767;42.068;24.752;2024-02-28T04:17:05;21.10;;;13.20;;
70342;SDS011;57767;42.068;24.752;2024-02-28T04:18:06;17.85;;;13.00;;
70342;SDS011;57767;42.068;24.752;2024-02-28T04:19:08;21.77;;;14.88;;
70342;SDS011;57767;42.068;24.752;2024-02-28T04:20:12;24.58;;;14.88;;
70342;SDS011;57767;42.068;24.752;2024-02-28T04:21:14;23.52;;;16.30;;
70342;SDS011;57767;42.068;24.752;2024-02-28T04:22:16;23.17;;;16.92;;
70342;SDS011;57767;42.068;24.752;2024-02-28T04:23:17;23.15;;;16.10;;
70342;SDS011;57767;42.068;24.752;2024-02-28T04:24:19;26.52;;;18.67;;
70342;SDS011;57767;42.068;24.752;2024-02-28T04:25:21;36.17;;;21.83;;
70342;SDS011;57767;42.068;24.752;2024-02-28T04:26:23;38.20;;;25.73;;
70342;SDS011;57767;42.068;24.752;2024-02-28T04:27:24;35.08;;;23.05;;
70342;SDS011;57767;42.068;24.752;2024-02-28T04:28:26;32.97;;;23.75;;
70342;SDS011;57767;42.068;24.752;2024-02-28T04:29:27;37.45;;;24.27;;
70342;SDS011;57767;42.068;24.752;2024-02-28T04:30:29;56.03;;;36.72;;
70342;SDS011;57767;42.068;24.752;2024-02-28T04:31:31;46.22;;;33.25;;
70342;SDS011;57767;42.068;24.752;2024-02-28T04:32:33;40.72;;;30.58;;
70342;SDS011;57767;42.068;24.752;2024-02-28T04:33:36;40.67;;;27.27;;
70342;SDS011;57767;42.068;24.752;2024-02-28T04:34:38;35.42;;;23.25;;
70342;SDS011;57767;42.068;24.752;2024-02-28T04:35:40;29.95;;;20.40;;
70342;SDS011;57767;42.068;24.752;2024-02-28T04:36:42;34.03;;;21.13;;
70342;SDS011;57767;42.068;24.752;2024-02-28T04:37:44;31.33;;;20.48;;
70342;SDS011;57767;42.068;24.752;2024-02-28T04:38:48;30.85;;;20.98;;
70342;SDS011;57767;42.068;24.752;2024-02-28T04:39:50;37.70;;;21.50;;
70342;SDS011;57767;42.068;24.752;2024-02-28T04:40:51;33.45;;;21.60;;
70342;SDS011;57767;42.068;24.752;2024-02-28T04:41:53;29.13;;;20.95;;
70342;SDS011;57767;42.068;24.752;2024-02-28T04:42:55;30.60;;;20.90;;
70342;SDS011;57767;42.068;24.752;2024-02-28T04:43:56;35.15;;;20.75;;
70342;SDS011;57767;42.068;24.752;2024-02-28T04:44:58;31.73;;;21.90;;
70342;SDS011;57767;42.068;24.752;2024-02-28T04:46:00;34.53;;;25.13;;
70342;SDS011;57767;42.068;24.752;2024-02-28T04:47:02;75.32;;;48.97;;
70342;SDS011;57767;42.068;24.752;2024-02-28T04:48:04;51.78;;;33.33;;
70342;SDS011;57767;42.068;24.752;2024-02-28T04:49:06;37.67;;;23.88;;
70342;SDS011;57767;42.068;24.752;2024-02-28T04:50:08;33.92;;;22.52;;
70342;SDS011;57767;42.068;24.752;2024-02-28T04:51:11;37.28;;;23.05;;
70342;SDS011;57767;42.068;24.752;2024-02-28T04:52:16;29.83;;;20.67;;
70342;SDS011;57767;42.068;24.752;2024-02-28T04:53:20;36.10;;;23.50;;
70342;SDS011;57767;42.068;24.752;2024-02-28T04:54:21;41.38;;;23.23;;
70342;SDS011;57767;42.068;24.752;2024-02-28T04:55:23;36.00;;;22.00;;
70342;SDS011;57767;42.068;24.752;2024-02-28T04:56:25;35.88;;;23.45;;
70342;SDS011;57767;42.068;24.752;2024-02-28T04:57:27;38.80;;;23.48;;
70342;SDS011;57767;42.068;24.752;2024-02-28T04:58:28;37.97;;;23.58;;
70342;SDS011;57767;42.068;24.752;2024-02-28T04:59:30;35.38;;;23.42;;
70342;SDS011;57767;42.068;24.752;2024-02-28T05:00:33;43.22;;;26.40;;
70342;SDS011;57767;42.068;24.752;2024-02-28T05:01:34;36.78;;;23.60;;
70342;SDS011;57767;42.068;24.752;2024-02-28T05:02:36;38.88;;;23.40;;
70342;SDS011;57767;42.068;24.752;2024-02-28T05:03:38;29.83;;;21.95;;
70342;SDS011;57767;42.068;24.752;2024-02-28T05:04:39;34.60;;;23.05;;
70342;SDS011;57767;42.068;24.752;2024-02-28T05:05:41;39.28;;;22.85;;
70342;SDS011;57767;42.068;24.752;2024-02-28T05:06:42;31.80;;;22.13;;
70342;SDS011;57767;42.068;24.752;2024-02-28T05:07:44;33.28;;;21.40;;
70342;SDS011;57767;42.068;24.752;2024-02-28T05:08:46;34.47;;;21.80;;
70342;SDS011;57767;42.068;24.752;2024-02-28T05:09:47;42.38;;;23.20;;
70342;SDS011;57767;42.068;24.752;2024-02-28T05:10:49;33.63;;;22.52;;
70342;SDS011;57767;42.068;24.752;2024-02-28T05:11:52;40.30;;;23.55;;
70342;SDS011;57767;42.068;24.752;2024-02-28T05:12:54;41.00;;;22.92;;
70342;SDS011;57767;42.068;24.752;2024-02-28T05:13:55;42.55;;;23.98;;
70342;SDS011;57767;42.068;24.752;2024-02-28T05:14:57;46.88;;;24.17;;
70342;SDS011;57767;42.068;24.752;2024-02-28T05:15:58;49.83;;;23.73;;
70342;SDS011;57767;42.068;24.752;2024-02-28T05:17:00;45.00;;;23.42;;
70342;SDS011;57767;42.068;24.752;2024-02-28T05:18:02;55.22;;;23.67;;
70342;SDS011;57767;42.068;24.752;2024-02-28T05:19:04;45.35;;;22.30;;
70342;SDS011;57767;42.068;24.752;2024-02-28T05:20:06;51.63;;;22.60;;
70342;SDS011;57767;42.068;24.752;2024-02-28T05:21:08;40.53;;;21.67;;
70342;SDS011;57767;42.068;24.752;2024-02-28T05:22:09;43.15;;;21.65;;
70342;SDS011;57767;42.068;24.752;2024-02-28T05:23:12;47.35;;;25.10;;
70342;SDS011;57767;42.068;24.752;2024-02-28T05:24:14;42.15;;;24.83;;
70342;SDS011;57767;42.068;24.752;2024-02-28T05:25:15;39.67;;;22.52;;
70342;SDS011;57767;42.068;24.752;2024-02-28T05:26:17;45.40;;;24.02;;
70342;SDS011;57767;42.068;24.752;2024-02-28T05:27:19;51.70;;;24.70;;
70342;SDS011;57767;42.068;24.752;2024-02-28T05:28:21;36.92;;;24.30;;
70342;SDS011;57767;42.068;24.752;2024-02-28T05:29:22;44.67;;;24.60;;
70342;SDS011;57767;42.068;24.752;2024-02-28T05:30:24;41.88;;;23.80;;
70342;SDS011;57767;42.068;24.752;2024-02-28T05:31:26;40.20;;;23.60;;
70342;SDS011;57767;42.068;24.752;2024-02-28T05:32:28;46.85;;;24.95;;
70342;SDS011;57767;42.068;24.752;2024-02-28T05:33:29;39.97;;;23.88;;
70342;SDS011;57767;42.068;24.752;2024-02-28T05:34:31;43.05;;;23.30;;
70342;SDS011;57767;42.068;24.752;2024-02-28T05:35:32;41.85;;;23.25;;
70342;SDS011;57767;42.068;24.752;2024-02-28T05:36:34;39.00;;;22.35;;
70342;SDS011;57767;42.068;24.752;2024-02-28T05:37:36;38.35;;;23.60;;
70342;SDS011;57767;42.068;24.752;2024-02-28T05:38:37;41.78;;;23.02;;
70342;SDS011;57767;42.068;24.752;2024-02-28T05:39:39;31.67;;;23.02;;
70342;SDS011;57767;42.068;24.752;2024-02-28T05:40:41;34.78;;;23.88;;
70342;SDS011;57767;42.068;24.752;2024-02-28T05:41:43;36.38;;;23.13;;
70342;SDS011;57767;42.068;24.752;2024-02-28T05:42:44;31.98;;;21.80;;
70342;SDS011;57767;42.068;24.752;2024-02-28T05:43:46;39.80;;;22.50;;
70342;SDS011;57767;42.068;24.752;2024-02-28T05:44:49;37.88;;;22.90;;
70342;SDS011;57767;42.068;24.752;2024-02-28T05:45:51;35.53;;;23.52;;
70342;SDS011;57767;42.068;24.752;2024-02-28T05:46:53;33.47;;;22.70;;
70342;SDS011;57767;42.068;24.752;2024-02-28T05:47:54;46.03;;;24.75;;
70342;SDS011;57767;42.068;24.752;2024-02-28T05:48:56;53.10;;;30.02;;
70342;SDS011;57767;42.068;24.752;2024-02-28T05:49:58;41.67;;;28.23;;
70342;SDS011;57767;42.068;24.752;2024-02-28T05:51:03;49.17;;;32.60;;
70342;SDS011;57767;42.068;24.752;2024-02-28T05:52:05;53.35;;;31.95;;
70342;SDS011;57767;42.068;24.752;2024-02-28T05:53:07;49.10;;;31.85;;
70342;SDS011;57767;42.068;24.752;2024-02-28T05:54:09;44.97;;;30.42;;
70342;SDS011;57767;42.068;24.752;2024-02-28T05:55:11;49.55;;;32.00;;
70342;SDS011;57767;42.068;24.752;2024-02-28T05:56:13;49.70;;;30.83;;
70342;SDS011;57767;42.068;24.752;2024-02-28T05:57:15;53.80;;;30.08;;